Time;durP1;ratioP1;P1;durP2;ratioP2;P2;SDS_P1;SDS_P2;PMS_P1;PMS_P2;Temp;Humidity;BMP_temperature;BMP_pressure;BME280_temperature;BME280_humidity;BME280_pressure;Samples;Min_cycle;Max_cycle;Signal;HPM_P1;HPM_P2
2023/09/02 00:10:10;;;;;;;9.77;3.17;;;;;;;25.05;100.00;101015.44;20610385;28;20042;-73
2023/09/02 00:20:32;;;;;;;10.70;3.30;;;;;;;24.90;100.00;101014.22;20666144;28;20185;-73
2023/09/02 00:30:57;;;;;;;8.77;3.28;;;;;;;24.60;100.00;101011.75;20655908;28;20046;-73
2023/09/02 00:41:26;;;;;;;6.07;2.95;;;;;;;24.71;100.00;101007.75;20682063;28;20501;-74
2023/09/02 00:51:51;;;;;;;6.60;2.90;;;;;;;24.58;100.00;101002.81;20714022;28;20043;-74
2023/09/02 01:02:15;;;;;;;8.43;3.30;;;;;;;24.52;100.00;100994.06;20668823;28;20046;-73
2023/09/02 01:12:40;;;;;;;9.68;3.35;;;;;;;24.49;100.00;101000.44;20656933;28;20141;-73
2023/09/02 01:23:18;;;;;;;10.57;3.80;;;;;;;24.38;100.00;100999.09;20642332;28;20054;-74
2023/09/02 01:33:46;;;;;;;10.15;3.33;;;;;;;24.33;100.00;100980.41;20638482;28;20050;-73
2023/09/02 01:44:10;;;;;;;11.25;3.17;;;;;;;24.23;100.00;100965.47;20634429;28;20053;-74
2023/09/02 01:54:34;;;;;;;8.82;3.05;;;;;;;23.89;100.00;100965.81;20649905;28;20068;-74
2023/09/02 02:05:00;;;;;;;7.90;3.05;;;;;;;24.10;100.00;100950.63;20648073;28;20042;-73
2023/09/02 02:15:24;;;;;;;10.20;3.05;;;;;;;23.98;100.00;100941.19;20633407;28;20133;-74
2023/09/02 02:25:47;;;;;;;7.95;3.28;;;;;;;23.96;100.00;100947.59;20613747;28;20050;-74
2023/09/02 02:36:12;;;;;;;8.63;3.53;;;;;;;23.84;100.00;100954.28;20650852;28;20056;-74
2023/09/02 02:46:35;;;;;;;9.77;3.67;;;;;;;23.79;100.00;100953.59;20706861;28;20141;-74
2023/09/02 02:56:59;;;;;;;9.02;3.50;;;;;;;23.80;100.00;100953.53;20676069;28;20051;-73
2023/09/02 03:07:21;;;;;;;8.60;3.60;;;;;;;23.57;100.00;100958.84;20634519;28;20050;-73
2023/09/02 03:17:45;;;;;;;8.85;3.60;;;;;;;23.60;100.00;100957.88;20627120;28;20058;-73
2023/09/02 03:28:08;;;;;;;9.77;3.55;;;;;;;23.35;100.00;100952.41;20615509;28;20209;-73
2023/09/02 03:38:32;;;;;;;10.00;3.80;;;;;;;23.50;100.00;100949.22;20639305;28;20447;-73
2023/09/02 03:48:55;;;;;;;9.30;3.42;;;;;;;23.45;100.00;100951.16;20644768;28;20134;-74
2023/09/02 03:59:22;;;;;;;11.13;3.78;;;;;;;23.61;100.00;100959.63;20636961;28;20082;-73
2023/09/02 04:09:44;;;;;;;8.48;3.28;;;;;;;23.71;100.00;100970.03;20651930;28;20406;-73
2023/09/02 04:20:10;;;;;;;9.70;3.38;;;;;;;23.90;100.00;100981.03;20640148;28;20050;-74
2023/09/02 04:30:33;;;;;;;10.77;3.63;;;;;;;24.17;100.00;100976.47;20667354;28;20405;-74
2023/09/02 04:40:57;;;;;;;8.55;2.60;;;;;;;24.58;100.00;100969.53;20661204;28;20058;-73
2023/09/02 04:51:20;;;;;;;12.60;3.60;;;;;;;25.14;100.00;100958.31;20658737;28;20047;-74
2023/09/02 05:01:46;;;;;;;14.75;3.28;;;;;;;25.71;100.00;100966.69;20644881;28;20046;-74
2023/09/02 05:12:09;;;;;;;9.13;2.90;;;;;;;26.45;100.00;100967.84;20637188;28;20526;-75
2023/09/02 05:22:33;;;;;;;10.73;4.05;;;;;;;27.27;100.00;100960.28;20646676;28;20145;-74
2023/09/02 05:32:56;;;;;;;8.40;3.30;;;;;;;27.93;100.00;100950.50;20624611;28;20137;-75
2023/09/02 05:43:24;;;;;;;7.60;3.42;;;;;;;28.52;100.00;100939.13;20634640;28;20062;-75
2023/09/02 05:53:47;;;;;;;7.00;3.70;;;;;;;29.42;98.23;100952.09;20649241;28;20133;-75
2023/09/02 06:04:11;;;;;;;7.60;3.20;;;;;;;29.84;85.30;100963.13;20634436;28;20375;-75
2023/09/02 06:14:34;;;;;;;8.00;3.15;;;;;;;30.13;79.22;100953.16;20674939;28;20061;-74
2023/09/02 06:24:59;;;;;;;10.82;3.40;;;;;;;30.92;81.35;100966.31;20639226;28;20093;-73
2023/09/02 06:35:21;;;;;;;8.27;2.83;;;;;;;31.16;77.56;100976.50;20644560;28;20042;-74
2023/09/02 06:45:47;;;;;;;8.80;3.70;;;;;;;31.35;71.36;100973.41;20630748;28;20112;-75
2023/09/02 06:56:11;;;;;;;7.32;3.70;;;;;;;31.41;66.15;100981.19;20639445;28;20050;-74
2023/09/02 07:06:36;;;;;;;11.30;3.80;;;;;;;31.78;62.84;100989.59;20650824;28;20498;-74
2023/09/02 07:16:58;;;;;;;6.38;3.35;;;;;;;31.74;57.69;100996.25;20656181;28;20066;-74
2023/09/02 07:27:22;;;;;;;8.40;3.60;;;;;;;31.96;55.65;100991.97;20650245;28;20047;-74
2023/09/02 07:37:45;;;;;;;5.70;2.67;;;;;;;32.62;56.16;100998.22;20623337;28;20043;-74
2023/09/02 07:48:09;;;;;;;7.32;2.78;;;;;;;33.18;54.44;100996.78;20647183;28;20085;-74
2023/09/02 07:58:31;;;;;;;10.53;3.20;;;;;;;33.43;57.59;101004.91;20648958;28;20058;-74
2023/09/02 08:08:55;;;;;;;8.43;3.05;;;;;;;33.33;54.97;101022.19;20663472;28;20046;-73
2023/09/02 08:19:18;;;;;;;10.63;4.45;;;;;;;33.27;51.99;101029.00;20652290;28;20057;-74
2023/09/02 08:29:42;;;;;;;9.13;5.00;;;;;;;33.43;48.67;101039.63;20653637;28;20054;-74
2023/09/02 08:40:05;;;;;;;9.35;4.65;;;;;;;33.44;45.98;101030.44;20644882;28;20047;-74
2023/09/02 08:50:30;;;;;;;6.95;4.32;;;;;;;33.71;44.06;101031.13;20659282;28;20101;-73
2023/09/02 09:00:53;;;;;;;10.63;4.43;;;;;;;34.20;41.24;101041.00;20658217;28;20077;-74
2023/09/02 09:11:18;;;;;;;10.02;4.00;;;;;;;34.38;39.61;101018.53;20656488;28;20119;-75
2023/09/02 09:21:40;;;;;;;10.10;3.87;;;;;;;34.67;41.43;101038.09;20654184;28;20061;-75
2023/09/02 09:32:13;;;;;;;11.63;3.75;;;;;;;35.00;41.02;101045.47;20654098;28;20101;-74
2023/09/02 09:42:36;;;;;;;7.80;3.35;;;;;;;34.62;42.69;101032.13;20649896;28;20109;-74
2023/09/02 09:53:01;;;;;;;9.38;3.38;;;;;;;34.57;44.12;101034.38;20646706;28;20517;-74
2023/09/02 10:03:30;;;;;;;9.77;4.00;;;;;;;34.58;45.73;101025.16;20638930;28;20090;-76
2023/09/02 10:13:54;;;;;;;8.15;4.90;;;;;;;34.63;45.95;101038.47;20640781;28;20058;-74
2023/09/02 10:24:17;;;;;;;9.87;4.27;;;;;;;35.01;44.86;101032.63;20654084;28;20061;-75
2023/09/02 10:34:49;;;;;;;11.02;5.18;;;;;;;34.71;44.62;101031.41;20650038;28;20497;-74
2023/09/02 10:45:12;;;;;;;7.90;4.25;;;;;;;34.75;43.70;101024.66;20646885;28;20498;-74
2023/09/02 10:56:01;;;;;;;8.80;4.25;;;;;;;34.67;42.24;101018.91;20635699;28;20489;-75
2023/09/02 11:06:23;;;;;;;10.13;5.32;;;;;;;34.09;43.01;101024.50;20642095;28;20785;-74
2023/09/02 11:17:25;;;;;;;13.95;7.20;;;;;;;33.68;43.86;101016.72;20646258;28;20066;-74
2023/09/02 11:27:47;;;;;;;13.80;7.93;;;;;;;33.74;44.51;101017.16;20627201;28;20054;-73
2023/09/02 11:38:20;;;;;;;14.50;10.00;;;;;;;33.80;43.79;101010.38;20667647;28;20462;-74
2023/09/02 11:48:42;;;;;;;15.48;6.47;;;;;;;33.95;43.01;100998.19;20634576;28;20064;-73
2023/09/02 11:59:06;;;;;;;12.57;7.32;;;;;;;33.77;43.35;101005.97;20651823;28;20046;-74
2023/09/02 12:09:30;;;;;;;10.82;7.60;;;;;;;33.49;43.25;100992.63;20625752;28;20054;-73
2023/09/02 12:19:54;;;;;;;19.27;8.25;;;;;;;33.33;43.57;100973.78;20656216;28;20047;-74
2023/09/02 12:30:27;;;;;;;11.82;8.15;;;;;;;33.44;44.87;100960.13;20624418;28;20053;-74
2023/09/02 12:40:56;;;;;;;13.32;8.50;;;;;;;32.99;45.35;100950.78;20621992;28;20712;-74
2023/09/02 12:51:27;;;;;;;13.52;8.25;;;;;;;32.94;45.90;100931.09;20634407;28;20429;-74
2023/09/02 13:01:52;;;;;;;12.27;8.70;;;;;;;32.68;46.64;100930.31;20638090;28;20049;-75
2023/09/02 13:12:15;;;;;;;13.73;8.75;;;;;;;32.76;45.66;100916.91;20648809;28;20402;-75
2023/09/02 13:22:40;;;;;;;13.13;7.70;;;;;;;32.60;45.91;100902.63;20631304;28;20533;-74
2023/09/02 13:33:03;;;;;;;12.45;8.35;;;;;;;32.34;47.22;100915.47;20663893;28;20105;-76
2023/09/02 13:43:27;;;;;;;12.23;7.47;;;;;;;32.39;47.77;100909.66;20652428;28;20042;-76
2023/09/02 13:53:50;;;;;;;11.10;6.47;;;;;;;32.38;46.30;100907.91;20638477;28;20064;-75
2023/09/02 14:04:16;;;;;;;11.93;6.90;;;;;;;32.04;45.83;100906.69;20617241;28;20104;-75
2023/09/02 14:14:38;;;;;;;12.88;6.75;;;;;;;31.90;47.03;100920.50;20623329;28;20066;-74
2023/09/02 14:25:04;;;;;;;13.60;7.35;;;;;;;31.51;48.15;100905.84;20647939;28;20074;-74
2023/09/02 14:35:27;;;;;;;12.23;7.28;;;;;;;31.44;49.46;100911.88;20638114;28;20097;-74
2023/09/02 14:45:51;;;;;;;15.82;6.93;;;;;;;31.11;50.51;100904.13;20649694;28;20061;-74
2023/09/02 14:56:16;;;;;;;18.50;7.53;;;;;;;30.78;51.90;100904.50;20624429;28;20046;-74
2023/09/02 15:06:40;;;;;;;11.70;7.32;;;;;;;30.36;52.30;100919.91;20649859;28;20187;-74
2023/09/02 15:17:04;;;;;;;12.55;7.30;;;;;;;30.14;54.81;100924.97;20641915;28;20061;-74
2023/09/02 15:27:30;;;;;;;12.18;8.73;;;;;;;30.08;56.71;100928.06;20647048;28;20054;-74
2023/09/02 15:37:53;;;;;;;13.55;8.07;;;;;;;29.89;59.32;100917.44;20666238;28;20122;-73
2023/09/02 15:48:17;;;;;;;15.63;8.77;;;;;;;29.76;63.17;100921.88;20664351;28;20058;-74
2023/09/02 15:58:39;;;;;;;12.80;8.38;;;;;;;29.68;64.22;100905.13;20663947;28;20054;-74
2023/09/02 16:09:03;;;;;;;11.65;8.10;;;;;;;29.49;65.71;100915.38;20632849;28;20055;-74
2023/09/02 16:19:27;;;;;;;13.35;7.78;;;;;;;28.73;78.20;100919.84;20658478;28;20053;-74
2023/09/02 16:29:51;;;;;;;15.80;7.88;;;;;;;28.23;89.23;100930.81;20646051;28;20058;-73
2023/09/02 16:40:14;;;;;;;13.57;9.10;;;;;;;28.10;97.42;100936.00;20651998;28;20054;-73
2023/09/02 16:50:38;;;;;;;13.82;8.07;;;;;;;28.07;100.00;100956.06;20651058;28;20562;-74
2023/09/02 17:01:04;;;;;;;16.98;9.65;;;;;;;28.10;100.00;100971.31;20644628;28;20120;-74
2023/09/02 17:11:28;;;;;;;13.55;8.40;;;;;;;28.13;100.00;100979.31;20622207;28;20047;-74
2023/09/02 17:21:56;;;;;;;14.18;8.05;;;;;;;28.09;100.00;100985.88;20652950;28;20881;-74
2023/09/02 17:32:20;;;;;;;12.73;6.80;;;;;;;28.05;100.00;101012.28;20618309;28;20101;-74
2023/09/02 17:42:44;;;;;;;11.88;7.82;;;;;;;28.06;100.00;101013.16;20623823;28;20058;-74
2023/09/02 17:53:08;;;;;;;18.40;9.65;;;;;;;28.00;100.00;101016.22;20637426;28;20089;-73
2023/09/02 18:03:30;;;;;;;14.18;7.43;;;;;;;27.87;100.00;101020.53;20663846;28;20050;-74
2023/09/02 18:13:55;;;;;;;15.45;7.50;;;;;;;27.80;100.00;101027.22;20658074;28;20051;-72
2023/09/02 18:24:17;;;;;;;18.60;8.45;;;;;;;27.82;100.00;101014.47;20651760;28;20086;-73
2023/09/02 18:34:41;;;;;;;16.45;8.80;;;;;;;27.69;100.00;101011.50;20651346;28;20050;-73
2023/09/02 18:45:07;;;;;;;15.95;8.30;;;;;;;27.65;100.00;101015.31;20623967;28;20059;-72
2023/09/02 18:55:32;;;;;;;18.70;8.90;;;;;;;27.67;100.00;101032.41;20665849;28;20137;-73
2023/09/02 19:05:55;;;;;;;16.92;9.23;;;;;;;27.73;100.00;101034.78;20695439;28;20062;-73
2023/09/02 19:16:19;;;;;;;14.25;8.60;;;;;;;27.58;100.00;101019.28;20639579;28;20137;-74
2023/09/02 19:26:41;;;;;;;26.48;17.02;;;;;;;27.46;100.00;101030.72;20655446;28;20602;-73
2023/09/02 19:37:06;;;;;;;17.85;9.63;;;;;;;27.38;100.00;101013.00;20661233;28;20479;-73
2023/09/02 19:47:29;;;;;;;23.92;13.23;;;;;;;27.25;100.00;101000.13;20674016;28;20046;-73
2023/09/02 19:57:53;;;;;;;15.70;8.65;;;;;;;27.22;100.00;100998.47;20653308;28;20450;-74
2023/09/02 20:08:15;;;;;;;17.83;8.05;;;;;;;27.16;100.00;101006.03;20659291;28;20112;-75
2023/09/02 20:18:41;;;;;;;15.98;8.75;;;;;;;27.11;100.00;100999.97;20631036;28;20466;-74
2023/09/02 20:29:04;;;;;;;16.25;7.78;;;;;;;27.04;100.00;100984.94;20640885;28;20082;-74
2023/09/02 20:39:28;;;;;;;14.73;7.32;;;;;;;26.95;100.00;100979.00;20638708;28;20050;-74
2023/09/02 20:49:51;;;;;;;12.15;6.90;;;;;;;26.87;100.00;100964.91;20706330;28;20105;-74
2023/09/02 21:00:16;;;;;;;11.65;6.68;;;;;;;26.79;100.00;100948.16;20703357;28;20057;-74
2023/09/02 21:10:40;;;;;;;16.92;7.60;;;;;;;26.75;100.00;100941.13;20658337;28;20050;-74
2023/09/02 21:21:05;;;;;;;15.32;7.30;;;;;;;26.72;100.00;100924.13;20645918;28;20134;-74
2023/09/02 21:31:27;;;;;;;11.77;6.18;;;;;;;26.66;100.00;100922.59;20640334;28;20053;-74
2023/09/02 21:41:53;;;;;;;13.75;6.25;;;;;;;26.65;100.00;100926.25;20706276;28;20055;-74
2023/09/02 21:52:17;;;;;;;12.13;6.43;;;;;;;26.63;100.00;100928.19;20655034;28;20582;-73
2023/09/02 22:02:41;;;;;;;13.70;6.90;;;;;;;26.62;100.00;100921.00;20657006;28;20509;-74
2023/09/02 22:13:03;;;;;;;13.25;6.38;;;;;;;26.61;100.00;100921.06;20661074;28;20054;-74
2023/09/02 22:23:29;;;;;;;14.98;6.50;;;;;;;26.57;100.00;100912.22;20651750;28;20054;-74
2023/09/02 22:33:52;;;;;;;14.15;6.90;;;;;;;26.54;100.00;100917.78;20646194;28;20501;-74
2023/09/02 22:44:16;;;;;;;12.00;6.78;;;;;;;26.52;100.00;100933.22;20677621;28;20410;-74
2023/09/02 22:54:38;;;;;;;12.60;6.25;;;;;;;26.50;100.00;100930.59;20645821;28;20042;-74
2023/09/02 23:05:02;;;;;;;14.05;6.95;;;;;;;26.45;100.00;100919.09;20644920;28;20089;-73
2023/09/02 23:15:25;;;;;;;17.13;6.25;;;;;;;26.42;100.00;100908.41;20643489;28;20108;-73
2023/09/02 23:25:54;;;;;;;12.50;6.75;;;;;;;26.41;100.00;100916.59;20640291;28;20644;-74
2023/09/02 23:36:17;;;;;;;13.88;5.80;;;;;;;26.38;100.00;100922.19;20641787;28;20101;-73
2023/09/02 23:46:40;;;;;;;13.90;6.20;;;;;;;26.37;100.00;100917.72;20644585;28;20054;-74
2023/09/02 23:57:03;;;;;;;11.50;5.65;;;;;;;26.38;100.00;100916.78;20674680;28;20391;-74
